Bergitta — C6WM5 — position and weather

sailwx.info

Track history (hours):
 
Tides and Currents Weather Stations Pressure Air Temp Water Temp Dewpoint Dewpoint Depression Visibility Wind Speed Wind Dir Waves Ship Positions

Bergitta

Last reported at 2017-Nov-18 23:56 UTC. Time now 2017-Nov-19 16:12 UTC.
Position N 29°44' W 095°01'.

Length 240 m; draft 11.7 m.

Type: Tanker. MMSI: 309234000.

Date/timePositionNaut miles runAvg speedWind from/ knotsBaromVisibWave heightAir tempDewpointWater temp
2017-Nov-18 23:56N 29°44' W 095°01'0 0.0
2017-Nov-18 23:30N 29°44' W 095°01'0 0.0
2017-Nov-18 23:00N 29°44' W 095°01'0 0.8
2017-Nov-18 22:30N 29°43' W 095°01'3 6.2
2017-Nov-18 22:00N 29°41' W 094°59'5 9.7
2017-Nov-18 21:30N 29°36' W 094°57'510.5
2017-Nov-18 21:01N 29°32' W 094°54'610.5
2017-Nov-18 20:25N 29°27' W 094°50'  
2017-Nov-14 14:07N 27°20' W 094°03'214.1
2017-Nov-14 14:00N 27°18' W 094°02'814.1
2017-Nov-14 13:28N 27°12' W 093°57'714.0
2017-Nov-14 12:59N 27°06' W 093°53'714.2
2017-Nov-14 12:29N 27°01' W 093°47'714.2
2017-Nov-14 12:00N 26°56' W 093°43'714.0
2017-Nov-14 11:30N 26°50' W 093°38'714.0
2017-Nov-14 11:00N 26°45' W 093°33'713.9
2017-Nov-14 10:30N 26°39' W 093°28'714.2
2017-Nov-14 10:00N 26°33' W 093°24'714.2
2017-Nov-14 09:30N 26°27' W 093°19'714.0
2017-Nov-14 09:00N 26°22' W 093°14'713.8
2017-Nov-14 08:29N 26°17' W 093°09'713.3
2017-Nov-14 07:59N 26°12' W 093°03'612.9
2017-Nov-14 07:29N 26°10' W 092°57'612.3
2017-Nov-14 06:59N 26°07' W 092°51'612.2
2017-Nov-14 06:30N 26°04' W 092°45'611.9
2017-Nov-14 06:00N 26°01' W 092°39'611.8
2017-Nov-14 05:29N 25°58' W 092°33'611.8
2017-Nov-14 05:00N 25°55' W 092°28'612.1
2017-Nov-14 04:29N 25°52' W 092°22'713.4
2017-Nov-14 03:59N 25°48' W 092°16'713.7
2017-Nov-14 03:27N 25°45' W 092°08'  
2017-Nov-11 19:31N 25°34' W 079°29'012.8
2017-Nov-11 19:30N 25°34' W 079°29'3512.7
2017-Nov-11 16:44N 26°09' W 079°25'312.6
2017-Nov-11 16:30N 26°12' W 079°24'  
Track history (hours):
 
Tides and Currents Weather Stations Pressure Air Temp Water Temp Dewpoint Dewpoint Depression Visibility Wind Speed Wind Dir Waves Ship Positions

Bergitta

Last reported at 2017-Nov-18 23:56 UTC. Time now 2017-Nov-19 16:12 UTC.
Position N 29°44' W 095°01'.

Length 240 m; draft 11.7 m.

Type: Tanker. MMSI: 309234000.

Date/timePositionNaut miles runAvg speedWind from/ knotsBaromVisibWave heightAir tempDewpointWater temp
2017-Nov-18 23:56N 29°44' W 095°01'0 0.0
2017-Nov-18 23:30N 29°44' W 095°01'0 0.0
2017-Nov-18 23:00N 29°44' W 095°01'0 0.8
2017-Nov-18 22:30N 29°43' W 095°01'3 6.2
2017-Nov-18 22:00N 29°41' W 094°59'5 9.7
2017-Nov-18 21:30N 29°36' W 094°57'510.5
2017-Nov-18 21:01N 29°32' W 094°54'610.5
2017-Nov-18 20:25N 29°27' W 094°50'  
2017-Nov-14 14:07N 27°20' W 094°03'214.1
2017-Nov-14 14:00N 27°18' W 094°02'814.1
2017-Nov-14 13:28N 27°12' W 093°57'714.0
2017-Nov-14 12:59N 27°06' W 093°53'714.2
2017-Nov-14 12:29N 27°01' W 093°47'714.2
2017-Nov-14 12:00N 26°56' W 093°43'714.0
2017-Nov-14 11:30N 26°50' W 093°38'714.0
2017-Nov-14 11:00N 26°45' W 093°33'713.9
2017-Nov-14 10:30N 26°39' W 093°28'714.2
2017-Nov-14 10:00N 26°33' W 093°24'714.2
2017-Nov-14 09:30N 26°27' W 093°19'714.0
2017-Nov-14 09:00N 26°22' W 093°14'713.8
2017-Nov-14 08:29N 26°17' W 093°09'713.3
2017-Nov-14 07:59N 26°12' W 093°03'612.9
2017-Nov-14 07:29N 26°10' W 092°57'612.3
2017-Nov-14 06:59N 26°07' W 092°51'612.2
2017-Nov-14 06:30N 26°04' W 092°45'611.9
2017-Nov-14 06:00N 26°01' W 092°39'611.8
2017-Nov-14 05:29N 25°58' W 092°33'611.8
2017-Nov-14 05:00N 25°55' W 092°28'612.1
2017-Nov-14 04:29N 25°52' W 092°22'713.4
2017-Nov-14 03:59N 25°48' W 092°16'713.7
2017-Nov-14 03:27N 25°45' W 092°08'  
2017-Nov-11 19:31N 25°34' W 079°29'012.8
2017-Nov-11 19:30N 25°34' W 079°29'3512.7
2017-Nov-11 16:44N 26°09' W 079°25'312.6
2017-Nov-11 16:30N 26°12' W 079°24'  

Dump ship's entire track history